createdAt,value
2023-04-30T00:00:39.833Z,1
2023-04-30T00:02:23.416Z,1
2023-04-30T00:04:07.108Z,1
2023-04-30T00:05:50.814Z,0
2023-04-30T00:07:34.512Z,1
2023-04-30T00:09:18.237Z,1
2023-04-30T00:11:01.939Z,3
2023-04-30T00:12:45.646Z,1
2023-04-30T00:14:29.328Z,1
2023-04-30T00:16:13.024Z,1
2023-04-30T00:17:56.721Z,0
2023-04-30T00:19:40.478Z,0
2023-04-30T00:21:24.139Z,1
2023-04-30T00:23:07.828Z,1
2023-04-30T00:24:51.532Z,1
2023-04-30T00:26:35.260Z,0
2023-04-30T00:28:19.006Z,1
2023-04-30T00:30:02.783Z,1
2023-04-30T00:31:46.350Z,1
2023-04-30T00:33:30.089Z,1
2023-04-30T00:35:13.759Z,1
2023-04-30T00:36:57.467Z,1
2023-04-30T00:38:41.167Z,0
2023-04-30T00:40:24.907Z,1
2023-04-30T00:42:08.624Z,1
2023-04-30T00:43:52.268Z,0
2023-04-30T00:45:35.963Z,1
2023-04-30T00:47:19.732Z,1
2023-04-30T00:49:03.406Z,0
2023-04-30T00:50:47.090Z,1
2023-04-30T00:52:30.799Z,1
2023-04-30T00:54:14.478Z,1
2023-04-30T00:57:41.903Z,1
2023-04-30T00:59:25.588Z,0
2023-04-30T01:01:09.324Z,1
2023-04-30T01:02:53.044Z,1
2023-04-30T01:04:36.711Z,0
2023-04-30T01:06:20.396Z,0
2023-04-30T01:08:04.130Z,1
2023-04-30T01:09:47.974Z,0
2023-04-30T01:11:31.552Z,1
2023-04-30T01:13:15.200Z,1
2023-04-30T01:14:59.039Z,0
2023-04-30T01:16:42.675Z,1
2023-04-30T01:18:26.309Z,0
2023-04-30T01:20:10.180Z,0
2023-04-30T01:21:53.762Z,1
2023-04-30T01:23:37.422Z,0
2023-04-30T01:25:21.156Z,0
2023-04-30T01:27:04.816Z,0
2023-04-30T01:28:48.552Z,0
2023-04-30T01:30:32.239Z,0
2023-04-30T01:32:15.911Z,0
2023-04-30T01:33:59.616Z,1
2023-04-30T01:35:43.320Z,1
2023-04-30T01:37:27.022Z,0
2023-04-30T01:39:10.728Z,0
2023-04-30T01:40:54.431Z,0
2023-04-30T01:42:38.225Z,0
2023-04-30T01:44:21.824Z,0
2023-04-30T01:46:05.542Z,0
2023-04-30T01:47:49.236Z,1
2023-04-30T01:49:32.937Z,0
2023-04-30T01:51:16.619Z,0
2023-04-30T01:53:00.417Z,0
2023-04-30T01:54:44.086Z,0
2023-04-30T01:56:27.743Z,0
2023-04-30T01:58:11.432Z,0
2023-04-30T01:59:55.303Z,0
2023-04-30T02:01:38.838Z,0
2023-04-30T02:03:22.547Z,0
2023-04-30T02:05:06.235Z,0
2023-04-30T02:06:49.954Z,0
2023-04-30T02:08:33.695Z,0
2023-04-30T02:10:17.344Z,0
2023-04-30T02:12:01.063Z,0
2023-04-30T02:13:44.777Z,0
2023-04-30T02:15:28.478Z,0
2023-04-30T02:17:12.143Z,0
2023-04-30T02:18:55.899Z,0
2023-04-30T02:20:39.579Z,0
2023-04-30T02:22:23.265Z,0
2023-04-30T02:24:06.966Z,0
2023-04-30T02:25:50.650Z,0
2023-04-30T02:27:34.355Z,0
2023-04-30T02:29:18.060Z,0
2023-04-30T02:31:01.757Z,1
2023-04-30T02:32:45.528Z,0
2023-04-30T02:34:29.182Z,0
2023-04-30T02:36:12.921Z,0
2023-04-30T02:37:56.552Z,0
2023-04-30T02:39:40.266Z,0
2023-04-30T02:41:24.043Z,0
2023-04-30T02:43:07.700Z,0
2023-04-30T02:44:51.392Z,0
2023-04-30T02:46:35.094Z,0
2023-04-30T02:48:18.802Z,0
2023-04-30T02:50:02.482Z,0
2023-04-30T02:51:46.206Z,0
2023-04-30T02:53:29.892Z,0
2023-04-30T02:55:13.614Z,0
2023-04-30T02:56:57.292Z,0
2023-04-30T02:58:41.002Z,0
2023-04-30T03:00:24.755Z,0
2023-04-30T03:02:08.414Z,0
2023-04-30T03:03:52.100Z,0
2023-04-30T03:05:35.821Z,0
2023-04-30T03:07:19.512Z,0
2023-04-30T03:09:03.235Z,0
2023-04-30T03:10:46.936Z,0
2023-04-30T03:12:30.640Z,0
2023-04-30T03:14:14.333Z,0
2023-04-30T03:15:58.022Z,0
2023-04-30T03:17:41.728Z,0
2023-04-30T03:19:25.439Z,1
2023-04-30T03:21:09.156Z,0
2023-04-30T03:22:52.829Z,0
2023-04-30T03:24:36.676Z,1
2023-04-30T03:26:20.253Z,0
2023-04-30T03:28:03.946Z,0
2023-04-30T03:29:47.825Z,0
2023-04-30T03:31:31.462Z,0
2023-04-30T03:33:15.118Z,0
2023-04-30T03:34:58.890Z,0
2023-04-30T03:36:42.530Z,0
2023-04-30T03:38:26.197Z,0
2023-04-30T03:40:09.887Z,0
2023-04-30T03:41:53.726Z,1
2023-04-30T03:43:37.290Z,0
2023-04-30T03:45:21.057Z,1
2023-04-30T03:47:04.681Z,1
2023-04-30T03:48:48.401Z,1
2023-04-30T03:50:32.223Z,2
2023-04-30T03:52:15.909Z,3
2023-04-30T03:53:59.506Z,3
2023-04-30T03:55:43.244Z,3
2023-04-30T03:57:26.959Z,3
2023-04-30T03:59:10.619Z,4
2023-04-30T04:00:54.308Z,4
2023-04-30T04:02:38.019Z,5
2023-04-30T04:04:21.769Z,6
2023-04-30T04:06:05.476Z,6
2023-04-30T04:07:49.240Z,6
2023-04-30T04:09:32.825Z,7
2023-04-30T04:11:16.535Z,8
2023-04-30T04:13:00.311Z,8
2023-04-30T04:14:43.921Z,9
2023-04-30T04:16:27.674Z,10
2023-04-30T04:18:11.335Z,11
2023-04-30T04:19:55.089Z,12
2023-04-30T04:21:38.718Z,13
2023-04-30T04:23:22.431Z,16
2023-04-30T04:25:06.203Z,17
2023-04-30T04:26:49.918Z,18
2023-04-30T04:28:33.597Z,19
2023-04-30T04:30:17.423Z,19
2023-04-30T04:32:01.036Z,19
2023-04-30T04:33:44.666Z,22
2023-04-30T04:35:28.379Z,22
2023-04-30T04:38:55.737Z,23
2023-04-30T04:40:39.435Z,25
2023-04-30T04:42:23.146Z,28
2023-04-30T04:44:06.841Z,31
2023-04-30T04:45:50.549Z,35
2023-04-30T04:47:34.299Z,40
2023-04-30T04:49:17.948Z,45
2023-04-30T04:51:01.715Z,51
2023-04-30T04:52:45.357Z,57
2023-04-30T04:54:29.074Z,64
2023-04-30T04:56:12.817Z,71
2023-04-30T04:57:56.530Z,78
2023-04-30T04:59:40.229Z,80
2023-04-30T05:01:23.997Z,84
2023-04-30T05:03:07.691Z,89
2023-04-30T05:04:51.283Z,98
2023-04-30T05:06:35.048Z,107
2023-04-30T05:08:18.697Z,116
2023-04-30T05:10:02.409Z,126
2023-04-30T05:11:46.115Z,132
2023-04-30T05:13:29.789Z,136
2023-04-30T05:15:13.513Z,135
2023-04-30T05:16:57.225Z,135
2023-04-30T05:18:40.954Z,134
2023-04-30T05:20:24.701Z,133
2023-04-30T05:22:08.337Z,125
2023-04-30T05:23:52.047Z,123
2023-04-30T05:25:35.774Z,196
2023-04-30T05:27:19.532Z,177
2023-04-30T05:29:03.171Z,185
2023-04-30T05:30:47.012Z,175
2023-04-30T05:32:30.617Z,179
2023-04-30T05:34:14.256Z,187
2023-04-30T05:35:57.967Z,199
2023-04-30T05:37:41.761Z,201
2023-04-30T05:39:25.531Z,197
2023-04-30T05:41:09.070Z,197
2023-04-30T05:42:52.797Z,213
2023-04-30T05:44:36.437Z,236
2023-04-30T05:46:20.234Z,236
2023-04-30T05:48:03.885Z,225
2023-04-30T05:49:47.603Z,214
2023-04-30T05:51:31.373Z,206
2023-04-30T05:53:14.975Z,209
2023-04-30T05:54:58.685Z,231
2023-04-30T05:56:42.537Z,247
2023-04-30T05:58:26.165Z,244
2023-04-30T06:00:09.868Z,239
2023-04-30T06:01:53.499Z,257
2023-04-30T06:03:37.183Z,252
2023-04-30T06:05:21.007Z,233
2023-04-30T06:07:04.620Z,236
2023-04-30T06:08:48.298Z,251
2023-04-30T06:10:31.998Z,260
2023-04-30T06:12:15.683Z,280
2023-04-30T06:13:59.409Z,286
2023-04-30T06:15:43.101Z,553
2023-04-30T06:17:26.863Z,277
2023-04-30T06:19:10.527Z,245
2023-04-30T06:20:54.197Z,238
2023-04-30T06:22:37.908Z,271
2023-04-30T06:24:21.641Z,422
2023-04-30T06:26:05.291Z,775
2023-04-30T06:27:49.007Z,776
2023-04-30T06:29:32.823Z,776
2023-04-30T06:31:16.425Z,776
2023-04-30T06:33:00.138Z,777
2023-04-30T06:34:43.821Z,778
2023-04-30T06:36:27.525Z,775
2023-04-30T06:38:11.197Z,778
2023-04-30T06:39:55.063Z,778
2023-04-30T06:41:38.628Z,778
2023-04-30T06:43:22.474Z,779
2023-04-30T06:45:06.036Z,779
2023-04-30T06:46:49.733Z,779
2023-04-30T06:48:33.433Z,779
2023-04-30T06:50:17.117Z,779
2023-04-30T06:52:00.825Z,779
2023-04-30T06:53:44.529Z,779
2023-04-30T06:55:28.234Z,778
2023-04-30T06:57:11.938Z,780
2023-04-30T06:58:55.630Z,779
2023-04-30T07:00:39.424Z,779
2023-04-30T07:02:23.037Z,778
2023-04-30T07:04:06.755Z,780
2023-04-30T07:05:50.444Z,780
2023-04-30T07:07:34.177Z,780
2023-04-30T07:09:17.855Z,780
2023-04-30T07:11:01.595Z,780
2023-04-30T07:12:45.251Z,781
2023-04-30T07:14:28.976Z,781
2023-04-30T07:16:12.654Z,780
2023-04-30T07:17:56.350Z,781
2023-04-30T07:19:40.176Z,781
2023-04-30T07:21:23.783Z,781
2023-04-30T07:23:07.540Z,781
2023-04-30T07:24:51.168Z,781
2023-04-30T07:26:34.926Z,782
2023-04-30T07:28:18.571Z,781
2023-04-30T07:30:02.520Z,782
2023-04-30T07:31:46.033Z,781
2023-04-30T07:33:29.674Z,781
2023-04-30T07:35:13.364Z,781
2023-04-30T07:36:57.127Z,782
2023-04-30T07:38:40.805Z,781
2023-04-30T07:40:24.469Z,782
2023-04-30T07:42:08.265Z,782
2023-04-30T07:43:51.898Z,782
2023-04-30T07:45:35.659Z,780
2023-04-30T07:47:19.304Z,782
2023-04-30T07:49:03.051Z,782
2023-04-30T07:50:46.906Z,782
2023-04-30T07:52:30.519Z,782
2023-04-30T07:54:14.238Z,783
2023-04-30T07:55:57.990Z,783
2023-04-30T07:57:41.712Z,783
2023-04-30T07:59:25.300Z,782
2023-04-30T08:01:09.128Z,782
2023-04-30T08:02:52.805Z,783
2023-04-30T08:04:36.556Z,782
2023-04-30T08:06:20.254Z,783
2023-04-30T08:08:03.988Z,782
2023-04-30T08:09:47.591Z,783
2023-04-30T08:11:31.258Z,783
2023-04-30T08:13:15.021Z,783
2023-04-30T08:14:58.662Z,783
2023-04-30T08:16:42.435Z,781
2023-04-30T08:18:26.000Z,784
2023-04-30T08:20:09.655Z,784
2023-04-30T08:21:53.442Z,783
2023-04-30T08:23:37.052Z,784
2023-04-30T08:25:20.775Z,783
2023-04-30T08:27:04.462Z,784
2023-04-30T08:28:48.167Z,784
2023-04-30T08:30:31.859Z,783
2023-04-30T08:32:15.586Z,784
2023-04-30T08:33:59.271Z,783
2023-04-30T08:35:42.982Z,784
2023-04-30T08:37:26.699Z,785
2023-04-30T08:39:10.508Z,784
2023-04-30T08:40:54.085Z,783
2023-04-30T08:42:37.932Z,784
2023-04-30T08:46:05.225Z,784
2023-04-30T08:47:48.917Z,781
2023-04-30T08:49:32.700Z,783
2023-04-30T08:51:16.433Z,782
2023-04-30T08:53:00.054Z,783
2023-04-30T08:54:43.704Z,782
2023-04-30T08:56:27.427Z,782
2023-04-30T08:58:11.118Z,781
2023-04-30T08:59:54.935Z,781
2023-04-30T09:01:38.524Z,782
2023-04-30T09:03:22.289Z,782
2023-04-30T09:05:05.915Z,782
2023-04-30T09:06:49.644Z,779
2023-04-30T09:08:33.305Z,782
2023-04-30T09:10:17.046Z,782
2023-04-30T09:12:00.744Z,782
2023-04-30T09:13:44.599Z,782
2023-04-30T09:15:28.151Z,782
2023-04-30T09:17:12.027Z,782
2023-04-30T09:18:55.608Z,782
2023-04-30T09:20:39.248Z,782
2023-04-30T09:22:22.993Z,782
2023-04-30T09:25:50.419Z,782
2023-04-30T09:27:34.072Z,781
2023-04-30T09:29:17.906Z,782
2023-04-30T09:31:01.592Z,781
2023-04-30T09:32:45.155Z,781
2023-04-30T09:34:28.867Z,781
2023-04-30T09:36:12.569Z,781
2023-04-30T09:37:56.269Z,781
2023-04-30T09:39:40.074Z,781
2023-04-30T09:41:23.679Z,781
2023-04-30T09:43:07.369Z,781
2023-04-30T09:44:51.107Z,780
2023-04-30T09:46:34.773Z,780
2023-04-30T09:48:18.533Z,781
2023-04-30T09:50:02.182Z,780
2023-04-30T09:51:45.921Z,778
2023-04-30T09:53:29.635Z,780
2023-04-30T09:55:13.295Z,780
2023-04-30T09:56:56.996Z,780
2023-04-30T09:58:40.706Z,781
2023-04-30T10:00:24.380Z,780
2023-04-30T10:02:08.114Z,781
2023-04-30T10:03:51.806Z,780
2023-04-30T10:05:35.511Z,780
2023-04-30T10:07:19.310Z,779
2023-04-30T10:09:02.908Z,779
2023-04-30T10:10:46.636Z,779
2023-04-30T10:12:30.297Z,780
2023-04-30T10:14:14.079Z,780
2023-04-30T10:15:57.714Z,780
2023-04-30T10:17:41.429Z,778
2023-04-30T10:19:25.138Z,780
2023-04-30T10:21:08.831Z,781
2023-04-30T10:22:52.624Z,780
2023-04-30T10:24:36.225Z,780
2023-04-30T10:26:20.094Z,780
2023-04-30T10:28:03.634Z,780
2023-04-30T10:29:47.514Z,780
2023-04-30T10:31:31.028Z,780
2023-04-30T10:33:14.760Z,780
2023-04-30T10:34:58.469Z,780
2023-04-30T10:36:42.138Z,778
2023-04-30T10:38:25.860Z,781
2023-04-30T10:40:09.705Z,780
2023-04-30T10:41:53.371Z,780
2023-04-30T10:43:37.017Z,781
2023-04-30T10:45:20.649Z,780
2023-04-30T10:47:04.467Z,779
2023-04-30T10:48:48.068Z,780
2023-04-30T10:50:31.875Z,780
2023-04-30T10:52:15.530Z,779
2023-04-30T10:53:59.179Z,779
2023-04-30T10:55:42.904Z,778
2023-04-30T10:57:26.568Z,780
2023-04-30T10:59:10.290Z,780
2023-04-30T11:00:54.031Z,780
2023-04-30T11:02:37.684Z,780
2023-04-30T11:04:21.376Z,780
2023-04-30T11:06:05.080Z,780
2023-04-30T11:07:48.814Z,780
2023-04-30T11:09:32.479Z,779
2023-04-30T11:11:16.222Z,779
2023-04-30T11:12:59.900Z,780
2023-04-30T11:14:43.692Z,779
2023-04-30T11:16:27.286Z,780
2023-04-30T11:18:10.999Z,780
2023-04-30T11:19:54.816Z,780
2023-04-30T11:21:38.408Z,780
2023-04-30T11:23:22.190Z,780
2023-04-30T11:25:05.816Z,780
2023-04-30T11:26:49.517Z,780
2023-04-30T11:28:33.297Z,780
2023-04-30T11:30:16.915Z,781
2023-04-30T11:32:00.632Z,780
2023-04-30T11:33:44.319Z,778
2023-04-30T11:35:28.026Z,780
2023-04-30T11:37:11.734Z,780
2023-04-30T11:38:55.454Z,781
2023-04-30T11:40:39.155Z,780
2023-04-30T11:42:22.878Z,781
2023-04-30T11:44:06.525Z,780
2023-04-30T11:45:50.248Z,779
2023-04-30T11:47:33.936Z,780
2023-04-30T11:49:17.650Z,781
2023-04-30T11:51:01.409Z,780
2023-04-30T11:52:45.035Z,780
2023-04-30T11:54:28.754Z,780
2023-04-30T11:56:12.452Z,780
2023-04-30T11:57:56.167Z,780
2023-04-30T11:59:39.909Z,781
2023-04-30T12:01:23.624Z,780
2023-04-30T12:03:07.306Z,780
2023-04-30T12:04:51.026Z,778
2023-04-30T12:06:34.705Z,780
2023-04-30T12:08:18.383Z,780
2023-04-30T12:10:02.069Z,780
2023-04-30T12:11:45.763Z,780
2023-04-30T12:13:29.529Z,780
2023-04-30T12:15:13.180Z,780
2023-04-30T12:16:56.923Z,779
2023-04-30T12:18:40.561Z,780
2023-04-30T12:20:24.266Z,780
2023-04-30T12:22:08.073Z,780
2023-04-30T12:23:52.176Z,779
2023-04-30T12:25:35.394Z,779
2023-04-30T12:27:19.170Z,780
2023-04-30T12:29:02.793Z,780
2023-04-30T12:30:46.584Z,780
2023-04-30T12:32:30.204Z,779
2023-04-30T12:34:13.926Z,780
2023-04-30T12:35:57.614Z,779
2023-04-30T12:37:41.378Z,780
2023-04-30T12:39:25.019Z,780
2023-04-30T12:41:08.747Z,780
2023-04-30T12:42:52.411Z,778
2023-04-30T12:44:36.167Z,780
2023-04-30T12:46:19.820Z,780
2023-04-30T12:48:03.511Z,780
2023-04-30T12:49:47.378Z,779
2023-04-30T12:51:30.927Z,780
2023-04-30T12:53:14.614Z,779
2023-04-30T12:54:58.319Z,779
2023-04-30T12:56:42.027Z,780
2023-04-30T12:58:25.738Z,780
2023-04-30T13:00:09.520Z,779
2023-04-30T13:01:53.127Z,777
2023-04-30T13:03:36.835Z,780
2023-04-30T13:05:20.622Z,780
2023-04-30T13:07:04.232Z,780
2023-04-30T13:08:47.942Z,779
2023-04-30T13:10:31.697Z,779
2023-04-30T13:12:15.405Z,779
2023-04-30T13:13:59.062Z,780
2023-04-30T13:15:42.759Z,779
2023-04-30T13:17:26.475Z,779
2023-04-30T13:19:10.159Z,779
2023-04-30T13:20:53.937Z,779
2023-04-30T13:22:37.553Z,779
2023-04-30T13:24:21.295Z,780
2023-04-30T13:26:04.999Z,780
2023-04-30T13:27:48.761Z,779
2023-04-30T13:29:32.383Z,780
2023-04-30T13:31:16.060Z,779
2023-04-30T13:32:59.791Z,780
2023-04-30T13:34:43.503Z,780
2023-04-30T13:36:27.166Z,779
2023-04-30T13:38:10.986Z,780
2023-04-30T13:39:54.838Z,777
2023-04-30T13:41:38.532Z,779
2023-04-30T13:43:21.993Z,780
2023-04-30T13:45:05.701Z,779
2023-04-30T13:46:49.396Z,779
2023-04-30T13:48:33.105Z,779
2023-04-30T13:50:16.797Z,779
2023-04-30T13:52:00.497Z,776
2023-04-30T13:53:44.284Z,779
2023-04-30T13:55:27.949Z,779
2023-04-30T13:57:11.608Z,780
2023-04-30T13:58:55.309Z,779
2023-04-30T14:00:39.153Z,779
2023-04-30T14:02:22.717Z,780
2023-04-30T14:04:06.585Z,779
2023-04-30T14:05:50.118Z,779
2023-04-30T14:07:33.823Z,779
2023-04-30T14:09:17.565Z,780
2023-04-30T14:11:01.239Z,779
2023-04-30T14:12:44.938Z,780
2023-04-30T14:14:28.624Z,780
2023-04-30T14:16:12.318Z,780
2023-04-30T14:17:56.030Z,779
2023-04-30T14:19:39.776Z,780
2023-04-30T14:21:23.437Z,779
2023-04-30T14:23:07.148Z,779
2023-04-30T14:24:50.841Z,779
2023-04-30T14:26:34.565Z,779
2023-04-30T14:28:18.305Z,779
2023-04-30T14:30:01.927Z,779
2023-04-30T14:31:45.671Z,779
2023-04-30T14:33:29.391Z,779
2023-04-30T14:35:13.058Z,778
2023-04-30T14:36:56.758Z,780
2023-04-30T14:38:40.513Z,779
2023-04-30T14:40:24.158Z,779
2023-04-30T14:43:51.553Z,778
2023-04-30T14:45:35.284Z,779
2023-04-30T14:47:18.986Z,779
2023-04-30T14:49:02.698Z,779
2023-04-30T14:50:46.433Z,779
2023-04-30T14:52:30.156Z,778
2023-04-30T14:54:13.881Z,779
2023-04-30T14:55:57.509Z,779
2023-04-30T14:57:41.226Z,779
2023-04-30T14:59:24.943Z,779
2023-04-30T15:01:08.582Z,779
2023-04-30T15:02:52.296Z,779
2023-04-30T15:04:36.052Z,779
2023-04-30T15:06:19.695Z,779
2023-04-30T15:08:03.448Z,779
2023-04-30T15:09:47.228Z,778
2023-04-30T15:11:30.800Z,779
2023-04-30T15:13:14.502Z,778
2023-04-30T15:14:58.367Z,778
2023-04-30T15:16:41.943Z,778
2023-04-30T15:18:25.630Z,779
2023-04-30T15:20:09.454Z,779
2023-04-30T15:21:53.023Z,778
2023-04-30T15:23:36.704Z,778
2023-04-30T15:25:20.400Z,779
2023-04-30T15:27:04.211Z,779
2023-04-30T15:28:47.818Z,778
2023-04-30T15:30:31.603Z,779
2023-04-30T15:32:15.205Z,778
2023-04-30T15:33:58.948Z,778
2023-04-30T15:35:42.635Z,776
2023-04-30T15:37:26.357Z,778
2023-04-30T15:39:10.086Z,778
2023-04-30T15:40:53.850Z,779
2023-04-30T15:42:37.493Z,779
2023-04-30T15:44:21.239Z,779
2023-04-30T15:46:04.830Z,779
2023-04-30T15:47:48.535Z,778
2023-04-30T15:49:32.241Z,779
2023-04-30T15:51:16.085Z,779
2023-04-30T15:52:59.685Z,779
2023-04-30T15:54:43.343Z,778
2023-04-30T15:56:27.040Z,778
2023-04-30T15:58:10.790Z,779
2023-04-30T15:59:54.601Z,779
2023-04-30T16:01:38.230Z,779
2023-04-30T16:03:21.861Z,779
2023-04-30T16:05:05.556Z,778
2023-04-30T16:06:49.281Z,778
2023-04-30T16:08:33.008Z,778
2023-04-30T16:10:16.682Z,778
2023-04-30T16:12:00.469Z,778
2023-04-30T16:13:44.053Z,778
2023-04-30T16:15:27.753Z,778
2023-04-30T16:17:11.443Z,778
2023-04-30T16:18:55.138Z,778
2023-04-30T16:20:38.848Z,778
2023-04-30T16:22:22.558Z,775
2023-04-30T16:24:06.258Z,778
2023-04-30T16:25:49.957Z,778
2023-04-30T16:27:33.673Z,779
2023-04-30T16:29:17.349Z,777
2023-04-30T16:31:01.079Z,778
2023-04-30T16:32:44.892Z,778
2023-04-30T16:34:28.474Z,778
2023-04-30T16:36:12.152Z,778
2023-04-30T16:37:55.861Z,778
2023-04-30T16:39:39.682Z,779
2023-04-30T16:41:23.289Z,777
2023-04-30T16:43:06.960Z,778
2023-04-30T16:44:50.717Z,778
2023-04-30T16:46:34.366Z,779
2023-04-30T16:48:18.088Z,778
2023-04-30T16:50:01.789Z,778
2023-04-30T16:51:45.475Z,778
2023-04-30T16:53:29.178Z,778
2023-04-30T16:55:12.968Z,774
2023-04-30T16:56:56.575Z,778
2023-04-30T16:58:40.323Z,778
2023-04-30T17:00:24.048Z,777
2023-04-30T17:02:07.682Z,778
2023-04-30T17:03:51.372Z,778
2023-04-30T17:05:35.079Z,778
2023-04-30T17:07:18.796Z,778
2023-04-30T17:09:02.571Z,778
2023-04-30T17:10:46.280Z,778
2023-04-30T17:12:29.952Z,778
2023-04-30T17:14:13.601Z,777
2023-04-30T17:15:57.347Z,778
2023-04-30T17:17:40.989Z,778
2023-04-30T17:19:24.739Z,778
2023-04-30T17:21:08.419Z,776
2023-04-30T17:22:52.088Z,749
2023-04-30T17:24:35.872Z,727
2023-04-30T17:26:19.486Z,707
2023-04-30T17:28:03.251Z,687
2023-04-30T17:29:46.996Z,670
2023-04-30T17:31:30.780Z,655
2023-04-30T17:33:14.332Z,637
2023-04-30T17:34:58.104Z,610
2023-04-30T17:36:41.700Z,583
2023-04-30T17:38:25.396Z,556
2023-04-30T17:40:09.107Z,530
2023-04-30T17:41:52.811Z,507
2023-04-30T17:43:36.517Z,485
2023-04-30T17:45:20.208Z,467
2023-04-30T17:47:03.922Z,450
2023-04-30T17:48:47.700Z,431
2023-04-30T17:50:31.325Z,410
2023-04-30T17:52:15.023Z,388
2023-04-30T17:53:58.763Z,362
2023-04-30T17:55:42.453Z,339
2023-04-30T17:57:26.131Z,316
2023-04-30T17:59:09.873Z,293
2023-04-30T18:00:53.533Z,271
2023-04-30T18:02:37.279Z,251
2023-04-30T18:04:20.989Z,229
2023-04-30T18:06:04.668Z,209
2023-04-30T18:07:48.387Z,191
2023-04-30T18:09:32.059Z,175
2023-04-30T18:11:15.772Z,158
2023-04-30T18:12:59.477Z,143
2023-04-30T18:14:43.201Z,130
2023-04-30T18:16:26.896Z,115
2023-04-30T18:18:10.568Z,103
2023-04-30T18:19:54.489Z,91
2023-04-30T18:21:38.000Z,80
2023-04-30T18:23:21.699Z,68
2023-04-30T18:25:05.558Z,58
2023-04-30T18:26:49.178Z,67
2023-04-30T18:28:32.982Z,58
2023-04-30T18:30:16.505Z,52
2023-04-30T18:32:00.224Z,46
2023-04-30T18:33:43.920Z,41
2023-04-30T18:35:27.615Z,44
2023-04-30T18:37:11.345Z,41
2023-04-30T18:38:55.148Z,34
2023-04-30T18:40:38.728Z,38
2023-04-30T18:42:22.589Z,13
2023-04-30T18:44:06.167Z,14
2023-04-30T18:45:49.838Z,13
2023-04-30T18:47:33.581Z,9
2023-04-30T18:49:17.301Z,9
2023-04-30T18:51:01.125Z,7
2023-04-30T18:52:44.665Z,6
2023-04-30T18:54:28.361Z,5
2023-04-30T18:56:12.066Z,5
2023-04-30T18:57:55.756Z,5
2023-04-30T18:59:39.536Z,3
2023-04-30T19:01:23.203Z,3
2023-04-30T19:03:06.897Z,3
2023-04-30T19:04:50.646Z,3
2023-04-30T19:06:34.296Z,3
2023-04-30T19:08:18.029Z,3
2023-04-30T19:10:01.678Z,4
2023-04-30T19:11:45.392Z,4
2023-04-30T19:13:29.168Z,3
2023-04-30T19:15:12.782Z,4
2023-04-30T19:16:56.483Z,4
2023-04-30T19:18:40.261Z,3
2023-04-30T19:20:23.944Z,3
2023-04-30T19:22:07.605Z,3
2023-04-30T19:23:51.295Z,3
2023-04-30T19:25:34.985Z,3
2023-04-30T19:27:18.694Z,4
2023-04-30T19:29:02.424Z,3
2023-04-30T19:30:46.088Z,4
2023-04-30T19:32:29.811Z,3
2023-04-30T19:34:13.505Z,4
2023-04-30T19:35:57.232Z,3
2023-04-30T19:37:41.045Z,4
2023-04-30T19:39:24.610Z,3
2023-04-30T19:41:08.320Z,4
2023-04-30T19:42:52.012Z,3
2023-04-30T19:44:35.708Z,3
2023-04-30T19:46:19.420Z,3
2023-04-30T19:48:03.164Z,4
2023-04-30T19:49:46.839Z,3
2023-04-30T19:51:30.586Z,4
2023-04-30T19:53:14.241Z,3
2023-04-30T19:54:57.965Z,3
2023-04-30T19:56:41.629Z,3
2023-04-30T19:58:25.363Z,3
2023-04-30T20:00:09.065Z,4
2023-04-30T20:01:52.760Z,3
2023-04-30T20:03:36.436Z,4
2023-04-30T20:05:20.148Z,4
2023-04-30T20:07:03.843Z,3
2023-04-30T20:08:47.561Z,3
2023-04-30T20:10:31.368Z,3
2023-04-30T20:12:15.132Z,3
2023-04-30T20:13:58.654Z,4
2023-04-30T20:15:42.441Z,4
2023-04-30T20:17:26.066Z,4
2023-04-30T20:19:09.794Z,3
2023-04-30T20:20:53.499Z,3
2023-04-30T20:22:37.171Z,3
2023-04-30T20:24:20.855Z,3
2023-04-30T20:26:04.562Z,3
2023-04-30T20:27:48.264Z,3
2023-04-30T20:29:31.965Z,3
2023-04-30T20:31:15.648Z,4
2023-04-30T20:32:59.387Z,3
2023-04-30T20:34:43.166Z,3
2023-04-30T20:36:26.859Z,3
2023-04-30T20:38:10.490Z,4
2023-04-30T20:39:54.162Z,3
2023-04-30T20:41:37.981Z,3
2023-04-30T20:43:21.640Z,3
2023-04-30T20:45:05.413Z,3
2023-04-30T20:46:48.974Z,4
2023-04-30T20:48:32.851Z,3
2023-04-30T20:50:16.582Z,4
2023-04-30T20:52:00.208Z,3
2023-04-30T20:53:43.814Z,3
2023-04-30T20:55:27.497Z,4
2023-04-30T20:57:11.192Z,2
2023-04-30T20:58:54.895Z,4
2023-04-30T21:00:38.613Z,3
2023-04-30T21:02:22.307Z,3
2023-04-30T21:04:06.017Z,3
2023-04-30T21:05:49.799Z,3
2023-04-30T21:07:33.541Z,3
2023-04-30T21:09:17.159Z,3
2023-04-30T21:11:00.836Z,3
2023-04-30T21:12:44.560Z,3
2023-04-30T21:14:28.241Z,4
2023-04-30T21:16:11.933Z,3
2023-04-30T21:17:55.635Z,3
2023-04-30T21:19:39.340Z,3
2023-04-30T21:21:23.205Z,3
2023-04-30T21:23:06.918Z,3
2023-04-30T21:24:50.422Z,3
2023-04-30T21:26:34.137Z,4
2023-04-30T21:28:17.961Z,3
2023-04-30T21:30:01.543Z,3
2023-04-30T21:31:45.261Z,3
2023-04-30T21:33:28.951Z,4
2023-04-30T21:35:12.651Z,3
2023-04-30T21:36:56.343Z,3
2023-04-30T21:38:40.089Z,3
2023-04-30T21:40:23.816Z,3
2023-04-30T21:42:07.463Z,3
2023-04-30T21:43:51.148Z,3
2023-04-30T21:45:34.852Z,3
2023-04-30T21:47:18.563Z,3
2023-04-30T21:49:02.272Z,4
2023-04-30T21:50:46.093Z,4
2023-04-30T21:52:29.666Z,3
2023-04-30T21:54:13.364Z,3
2023-04-30T21:55:57.130Z,3
2023-04-30T21:57:40.803Z,4
2023-04-30T21:59:24.479Z,3
2023-04-30T22:01:08.263Z,77
2023-04-30T22:02:51.875Z,78
2023-04-30T22:04:35.683Z,78
2023-04-30T22:06:19.369Z,78
2023-04-30T22:08:03.106Z,75
2023-04-30T22:09:46.817Z,75
2023-04-30T22:11:30.454Z,76
2023-04-30T22:13:14.090Z,70
2023-04-30T22:14:57.883Z,0
2023-04-30T22:16:41.612Z,1
2023-04-30T22:18:25.259Z,1
2023-04-30T22:20:09.019Z,0
2023-04-30T22:21:52.634Z,1
2023-04-30T22:23:36.329Z,0
2023-04-30T22:25:20.077Z,1
2023-04-30T22:27:03.709Z,1
2023-04-30T22:28:47.413Z,1
2023-04-30T22:30:31.121Z,1
2023-04-30T22:32:14.822Z,0
2023-04-30T22:33:58.523Z,1
2023-04-30T22:35:42.213Z,0
2023-04-30T22:37:25.972Z,1
2023-04-30T22:39:09.649Z,0
2023-04-30T22:40:53.414Z,0
2023-04-30T22:42:37.054Z,1
2023-04-30T22:44:20.722Z,1
2023-04-30T22:46:04.469Z,1
2023-04-30T22:47:48.143Z,1
2023-04-30T22:49:31.822Z,1
2023-04-30T22:51:15.545Z,2
2023-04-30T22:52:59.257Z,0
2023-04-30T22:54:43.061Z,0
2023-04-30T22:56:26.674Z,1
2023-04-30T22:58:10.352Z,1
2023-04-30T22:59:54.040Z,0
2023-04-30T23:01:37.730Z,1
2023-04-30T23:03:21.534Z,0
2023-04-30T23:05:05.170Z,1
2023-04-30T23:06:48.855Z,1
2023-04-30T23:08:32.538Z,1
2023-04-30T23:10:16.271Z,1
2023-04-30T23:11:59.955Z,1
2023-04-30T23:13:43.650Z,1
2023-04-30T23:15:27.385Z,0
2023-04-30T23:17:11.059Z,1
2023-04-30T23:18:54.759Z,1
2023-04-30T23:20:38.534Z,1
2023-04-30T23:22:22.239Z,1
2023-04-30T23:24:05.884Z,0
2023-04-30T23:25:49.626Z,0
2023-04-30T23:27:33.341Z,1
2023-04-30T23:29:16.986Z,1
2023-04-30T23:31:00.688Z,1
2023-04-30T23:32:44.492Z,1
2023-04-30T23:34:28.164Z,0
2023-04-30T23:36:11.833Z,0
2023-04-30T23:37:55.521Z,0
2023-04-30T23:39:39.194Z,0
2023-04-30T23:41:22.914Z,0
2023-04-30T23:43:06.698Z,0
2023-04-30T23:44:50.344Z,0
2023-04-30T23:46:34.187Z,0
2023-04-30T23:48:17.715Z,0
2023-04-30T23:50:01.493Z,0
2023-04-30T23:51:45.137Z,0
2023-04-30T23:53:28.872Z,0
2023-04-30T23:55:12.539Z,0
2023-04-30T23:56:56.354Z,0
2023-04-30T23:58:39.930Z,0
